sensor_id;sensor_type;location;lat;lon;timestamp;P1;durP1;ratioP1;P2;durP2;ratioP2
20110;SDS011;10216;42.658;23.248;2023-08-07T00:00:51;1.43;;;1.30;;
20110;SDS011;10216;42.658;23.248;2023-08-07T00:03:16;1.50;;;1.40;;
20110;SDS011;10216;42.658;23.248;2023-08-07T00:05:47;1.97;;;1.50;;
20110;SDS011;10216;42.658;23.248;2023-08-07T00:08:13;1.70;;;1.60;;
20110;SDS011;10216;42.658;23.248;2023-08-07T00:10:38;1.60;;;1.50;;
20110;SDS011;10216;42.658;23.248;2023-08-07T00:13:04;1.53;;;1.40;;
20110;SDS011;10216;42.658;23.248;2023-08-07T00:15:29;1.43;;;1.33;;
20110;SDS011;10216;42.658;23.248;2023-08-07T00:17:55;1.60;;;1.50;;
20110;SDS011;10216;42.658;23.248;2023-08-07T00:20:20;2.40;;;1.63;;
20110;SDS011;10216;42.658;23.248;2023-08-07T00:22:45;1.57;;;1.40;;
20110;SDS011;10216;42.658;23.248;2023-08-07T00:25:11;1.27;;;1.27;;
20110;SDS011;10216;42.658;23.248;2023-08-07T00:27:36;1.47;;;1.37;;
20110;SDS011;10216;42.658;23.248;2023-08-07T00:30:02;1.53;;;1.47;;
20110;SDS011;10216;42.658;23.248;2023-08-07T00:32:27;1.30;;;1.30;;
20110;SDS011;10216;42.658;23.248;2023-08-07T00:34:53;1.63;;;1.53;;
20110;SDS011;10216;42.658;23.248;2023-08-07T00:37:18;2.13;;;1.50;;
20110;SDS011;10216;42.658;23.248;2023-08-07T00:39:43;1.47;;;1.37;;
20110;SDS011;10216;42.658;23.248;2023-08-07T00:42:09;2.60;;;1.60;;
20110;SDS011;10216;42.658;23.248;2023-08-07T00:44:34;1.50;;;1.40;;
20110;SDS011;10216;42.658;23.248;2023-08-07T00:46:59;1.70;;;1.60;;
20110;SDS011;10216;42.658;23.248;2023-08-07T00:49:25;1.50;;;1.40;;
20110;SDS011;10216;42.658;23.248;2023-08-07T00:51:51;1.60;;;1.50;;
20110;SDS011;10216;42.658;23.248;2023-08-07T00:54:18;1.60;;;1.50;;
20110;SDS011;10216;42.658;23.248;2023-08-07T00:56:44;2.80;;;1.40;;
20110;SDS011;10216;42.658;23.248;2023-08-07T00:59:10;1.53;;;1.43;;
20110;SDS011;10216;42.658;23.248;2023-08-07T01:01:37;1.27;;;1.27;;
20110;SDS011;10216;42.658;23.248;2023-08-07T01:04:03;1.50;;;1.40;;
20110;SDS011;10216;42.658;23.248;2023-08-07T01:06:28;2.60;;;1.30;;
20110;SDS011;10216;42.658;23.248;2023-08-07T01:08:54;1.70;;;1.60;;
20110;SDS011;10216;42.658;23.248;2023-08-07T01:14:37;1.80;;;1.53;;
20110;SDS011;10216;42.658;23.248;2023-08-07T01:17:16;1.60;;;1.50;;
20110;SDS011;10216;42.658;23.248;2023-08-07T01:19:44;1.80;;;1.67;;
20110;SDS011;10216;42.658;23.248;2023-08-07T01:24:38;1.90;;;1.80;;
20110;SDS011;10216;42.658;23.248;2023-08-07T01:29:54;1.67;;;1.57;;
20110;SDS011;10216;42.658;23.248;2023-08-07T01:32:53;1.70;;;1.60;;
20110;SDS011;10216;42.658;23.248;2023-08-07T01:35:29;1.80;;;1.70;;
20110;SDS011;10216;42.658;23.248;2023-08-07T01:37:58;1.53;;;1.43;;
20110;SDS011;10216;42.658;23.248;2023-08-07T01:40:24;2.13;;;1.80;;
20110;SDS011;10216;42.658;23.248;2023-08-07T01:42:51;1.97;;;1.80;;
20110;SDS011;10216;42.658;23.248;2023-08-07T01:45:24;1.53;;;1.40;;
20110;SDS011;10216;42.658;23.248;2023-08-07T01:47:50;2.00;;;1.90;;
20110;SDS011;10216;42.658;23.248;2023-08-07T01:50:17;1.87;;;1.70;;
20110;SDS011;10216;42.658;23.248;2023-08-07T01:52:42;1.67;;;1.57;;
20110;SDS011;10216;42.658;23.248;2023-08-07T01:55:08;1.60;;;1.50;;
20110;SDS011;10216;42.658;23.248;2023-08-07T01:57:33;2.70;;;2.10;;
20110;SDS011;10216;42.658;23.248;2023-08-07T01:59:59;1.90;;;1.80;;
20110;SDS011;10216;42.658;23.248;2023-08-07T02:02:24;1.60;;;1.50;;
20110;SDS011;10216;42.658;23.248;2023-08-07T02:04:49;2.03;;;1.80;;
20110;SDS011;10216;42.658;23.248;2023-08-07T02:07:15;2.50;;;1.70;;
20110;SDS011;10216;42.658;23.248;2023-08-07T02:09:40;1.80;;;1.67;;
20110;SDS011;10216;42.658;23.248;2023-08-07T02:12:05;1.80;;;1.70;;
20110;SDS011;10216;42.658;23.248;2023-08-07T02:14:31;1.57;;;1.47;;
20110;SDS011;10216;42.658;23.248;2023-08-07T02:16:56;1.70;;;1.60;;
20110;SDS011;10216;42.658;23.248;2023-08-07T02:19:22;1.97;;;1.50;;
20110;SDS011;10216;42.658;23.248;2023-08-07T02:21:47;2.47;;;1.57;;
20110;SDS011;10216;42.658;23.248;2023-08-07T02:24:12;1.93;;;1.53;;
20110;SDS011;10216;42.658;23.248;2023-08-07T02:26:38;1.70;;;1.60;;
20110;SDS011;10216;42.658;23.248;2023-08-07T02:29:04;1.70;;;1.60;;
20110;SDS011;10216;42.658;23.248;2023-08-07T02:31:31;1.70;;;1.60;;
20110;SDS011;10216;42.658;23.248;2023-08-07T02:33:56;2.77;;;1.67;;
20110;SDS011;10216;42.658;23.248;2023-08-07T02:36:22;1.60;;;1.50;;
20110;SDS011;10216;42.658;23.248;2023-08-07T02:38:47;1.83;;;1.73;;
20110;SDS011;10216;42.658;23.248;2023-08-07T02:41:13;1.73;;;1.63;;
20110;SDS011;10216;42.658;23.248;2023-08-07T02:43:38;1.70;;;1.60;;
20110;SDS011;10216;42.658;23.248;2023-08-07T02:46:03;1.60;;;1.50;;
20110;SDS011;10216;42.658;23.248;2023-08-07T02:48:29;2.33;;;2.13;;
20110;SDS011;10216;42.658;23.248;2023-08-07T02:50:54;3.97;;;1.90;;
20110;SDS011;10216;42.658;23.248;2023-08-07T02:53:19;1.90;;;1.80;;
20110;SDS011;10216;42.658;23.248;2023-08-07T02:55:45;2.20;;;2.00;;
20110;SDS011;10216;42.658;23.248;2023-08-07T02:58:10;1.80;;;1.70;;
20110;SDS011;10216;42.658;23.248;2023-08-07T03:00:35;1.80;;;1.70;;
20110;SDS011;10216;42.658;23.248;2023-08-07T03:03:01;2.03;;;1.93;;
20110;SDS011;10216;42.658;23.248;2023-08-07T03:05:26;1.80;;;1.70;;
20110;SDS011;10216;42.658;23.248;2023-08-07T03:07:52;2.23;;;2.10;;
20110;SDS011;10216;42.658;23.248;2023-08-07T03:10:17;2.93;;;2.10;;
20110;SDS011;10216;42.658;23.248;2023-08-07T03:12:42;2.00;;;1.90;;
20110;SDS011;10216;42.658;23.248;2023-08-07T03:15:08;2.40;;;2.20;;
20110;SDS011;10216;42.658;23.248;2023-08-07T03:17:33;2.60;;;2.40;;
20110;SDS011;10216;42.658;23.248;2023-08-07T03:19:59;2.80;;;2.60;;
20110;SDS011;10216;42.658;23.248;2023-08-07T03:22:24;2.40;;;2.20;;
20110;SDS011;10216;42.658;23.248;2023-08-07T03:24:49;2.40;;;2.20;;
20110;SDS011;10216;42.658;23.248;2023-08-07T03:27:15;2.50;;;2.30;;
20110;SDS011;10216;42.658;23.248;2023-08-07T03:29:40;2.40;;;2.30;;
20110;SDS011;10216;42.658;23.248;2023-08-07T03:32:06;2.87;;;2.67;;
20110;SDS011;10216;42.658;23.248;2023-08-07T03:34:33;2.80;;;2.60;;
20110;SDS011;10216;42.658;23.248;2023-08-07T03:36:59;3.20;;;3.00;;
20110;SDS011;10216;42.658;23.248;2023-08-07T03:39:24;3.00;;;2.80;;
20110;SDS011;10216;42.658;23.248;2023-08-07T03:41:50;3.00;;;2.33;;
20110;SDS011;10216;42.658;23.248;2023-08-07T03:44:15;2.83;;;2.63;;
20110;SDS011;10216;42.658;23.248;2023-08-07T03:46:41;3.00;;;2.80;;
20110;SDS011;10216;42.658;23.248;2023-08-07T03:49:06;3.00;;;2.80;;
20110;SDS011;10216;42.658;23.248;2023-08-07T03:51:32;2.93;;;2.73;;
20110;SDS011;10216;42.658;23.248;2023-08-07T03:53:57;3.37;;;3.17;;
20110;SDS011;10216;42.658;23.248;2023-08-07T03:56:22;3.93;;;3.40;;
20110;SDS011;10216;42.658;23.248;2023-08-07T03:58:48;3.60;;;3.33;;
20110;SDS011;10216;42.658;23.248;2023-08-07T04:01:15;3.20;;;3.00;;
20110;SDS011;10216;42.658;23.248;2023-08-07T04:03:40;3.57;;;3.10;;
20110;SDS011;10216;42.658;23.248;2023-08-07T04:06:06;3.13;;;2.93;;
20110;SDS011;10216;42.658;23.248;2023-08-07T04:08:31;3.83;;;2.83;;
20110;SDS011;10216;42.658;23.248;2023-08-07T04:10:57;3.10;;;2.90;;
20110;SDS011;10216;42.658;23.248;2023-08-07T04:13:27;3.03;;;2.83;;
20110;SDS011;10216;42.658;23.248;2023-08-07T04:15:53;3.10;;;2.90;;
20110;SDS011;10216;42.658;23.248;2023-08-07T04:18:18;3.20;;;3.00;;
20110;SDS011;10216;42.658;23.248;2023-08-07T04:20:48;3.83;;;3.30;;
20110;SDS011;10216;42.658;23.248;2023-08-07T04:23:17;3.10;;;2.80;;
20110;SDS011;10216;42.658;23.248;2023-08-07T04:25:43;3.37;;;2.87;;
20110;SDS011;10216;42.658;23.248;2023-08-07T04:28:08;2.97;;;2.77;;
20110;SDS011;10216;42.658;23.248;2023-08-07T04:30:34;3.00;;;2.73;;
20110;SDS011;10216;42.658;23.248;2023-08-07T04:32:59;3.00;;;2.80;;
20110;SDS011;10216;42.658;23.248;2023-08-07T04:35:24;3.67;;;3.20;;
20110;SDS011;10216;42.658;23.248;2023-08-07T04:37:50;3.53;;;2.60;;
20110;SDS011;10216;42.658;23.248;2023-08-07T04:40:15;2.93;;;2.57;;
20110;SDS011;10216;42.658;23.248;2023-08-07T04:42:40;3.00;;;2.80;;
20110;SDS011;10216;42.658;23.248;2023-08-07T04:45:06;2.90;;;2.70;;
20110;SDS011;10216;42.658;23.248;2023-08-07T04:47:31;3.00;;;2.80;;
20110;SDS011;10216;42.658;23.248;2023-08-07T04:49:57;2.73;;;2.53;;
20110;SDS011;10216;42.658;23.248;2023-08-07T04:52:22;2.70;;;2.50;;
20110;SDS011;10216;42.658;23.248;2023-08-07T04:54:48;2.80;;;2.60;;
20110;SDS011;10216;42.658;23.248;2023-08-07T04:57:13;2.80;;;2.37;;
20110;SDS011;10216;42.658;23.248;2023-08-07T04:59:38;2.77;;;2.57;;
20110;SDS011;10216;42.658;23.248;2023-08-07T05:02:04;4.80;;;2.60;;
20110;SDS011;10216;42.658;23.248;2023-08-07T05:04:29;2.77;;;2.60;;
20110;SDS011;10216;42.658;23.248;2023-08-07T05:06:55;3.10;;;2.80;;
20110;SDS011;10216;42.658;23.248;2023-08-07T05:09:20;2.83;;;2.63;;
20110;SDS011;10216;42.658;23.248;2023-08-07T05:11:45;3.10;;;2.90;;
20110;SDS011;10216;42.658;23.248;2023-08-07T05:14:11;3.00;;;2.23;;
20110;SDS011;10216;42.658;23.248;2023-08-07T05:16:36;2.50;;;2.30;;
20110;SDS011;10216;42.658;23.248;2023-08-07T05:19:02;2.70;;;2.50;;
20110;SDS011;10216;42.658;23.248;2023-08-07T05:21:27;2.43;;;2.30;;
20110;SDS011;10216;42.658;23.248;2023-08-07T05:23:52;2.57;;;2.37;;
20110;SDS011;10216;42.658;23.248;2023-08-07T05:26:20;2.57;;;2.40;;
20110;SDS011;10216;42.658;23.248;2023-08-07T05:28:46;3.30;;;3.00;;
20110;SDS011;10216;42.658;23.248;2023-08-07T05:31:11;2.47;;;2.37;;
20110;SDS011;10216;42.658;23.248;2023-08-07T05:33:37;3.70;;;2.73;;
20110;SDS011;10216;42.658;23.248;2023-08-07T05:36:02;3.77;;;2.90;;
20110;SDS011;10216;42.658;23.248;2023-08-07T05:38:27;2.57;;;2.47;;
20110;SDS011;10216;42.658;23.248;2023-08-07T05:40:53;2.57;;;2.37;;
20110;SDS011;10216;42.658;23.248;2023-08-07T05:43:18;2.33;;;2.20;;
20110;SDS011;10216;42.658;23.248;2023-08-07T05:45:44;2.93;;;2.73;;
20110;SDS011;10216;42.658;23.248;2023-08-07T05:48:11;2.50;;;2.30;;
20110;SDS011;10216;42.658;23.248;2023-08-07T05:50:37;2.83;;;2.63;;
20110;SDS011;10216;42.658;23.248;2023-08-07T05:53:02;2.53;;;2.33;;
20110;SDS011;10216;42.658;23.248;2023-08-07T05:55:28;2.70;;;2.50;;
20110;SDS011;10216;42.658;23.248;2023-08-07T05:57:53;2.73;;;2.60;;
20110;SDS011;10216;42.658;23.248;2023-08-07T06:00:18;2.90;;;2.60;;
20110;SDS011;10216;42.658;23.248;2023-08-07T06:02:44;2.90;;;2.70;;
20110;SDS011;10216;42.658;23.248;2023-08-07T06:05:10;6.83;;;2.67;;
20110;SDS011;10216;42.658;23.248;2023-08-07T06:07:37;2.47;;;2.27;;
20110;SDS011;10216;42.658;23.248;2023-08-07T06:10:03;2.53;;;2.33;;
20110;SDS011;10216;42.658;23.248;2023-08-07T06:12:29;2.50;;;2.30;;
20110;SDS011;10216;42.658;23.248;2023-08-07T06:14:54;4.53;;;2.50;;
20110;SDS011;10216;42.658;23.248;2023-08-07T06:17:20;3.20;;;2.77;;
20110;SDS011;10216;42.658;23.248;2023-08-07T06:19:45;2.53;;;2.37;;
20110;SDS011;10216;42.658;23.248;2023-08-07T06:22:11;2.70;;;2.43;;
20110;SDS011;10216;42.658;23.248;2023-08-07T06:24:36;2.60;;;2.37;;
20110;SDS011;10216;42.658;23.248;2023-08-07T06:27:02;3.13;;;1.90;;
20110;SDS011;10216;42.658;23.248;2023-08-07T06:29:28;2.10;;;2.00;;
20110;SDS011;10216;42.658;23.248;2023-08-07T06:31:53;5.50;;;2.60;;
20110;SDS011;10216;42.658;23.248;2023-08-07T06:34:18;5.30;;;2.07;;
20110;SDS011;10216;42.658;23.248;2023-08-07T06:36:44;3.00;;;1.90;;
20110;SDS011;10216;42.658;23.248;2023-08-07T06:39:09;1.57;;;1.40;;
20110;SDS011;10216;42.658;23.248;2023-08-07T06:41:35;2.90;;;1.53;;
20110;SDS011;10216;42.658;23.248;2023-08-07T06:44:01;4.27;;;1.50;;
20110;SDS011;10216;42.658;23.248;2023-08-07T06:46:26;3.37;;;1.40;;
20110;SDS011;10216;42.658;23.248;2023-08-07T06:48:53;3.60;;;1.30;;
20110;SDS011;10216;42.658;23.248;2023-08-07T06:51:18;1.33;;;1.23;;
20110;SDS011;10216;42.658;23.248;2023-08-07T06:53:44;3.20;;;1.10;;
20110;SDS011;10216;42.658;23.248;2023-08-07T06:56:09;2.00;;;1.00;;
20110;SDS011;10216;42.658;23.248;2023-08-07T06:58:34;1.20;;;1.13;;
20110;SDS011;10216;42.658;23.248;2023-08-07T07:01:00;4.50;;;1.30;;
20110;SDS011;10216;42.658;23.248;2023-08-07T07:03:26;1.20;;;1.10;;
20110;SDS011;10216;42.658;23.248;2023-08-07T07:05:51;3.80;;;1.40;;
20110;SDS011;10216;42.658;23.248;2023-08-07T07:08:16;2.27;;;1.60;;
20110;SDS011;10216;42.658;23.248;2023-08-07T07:10:42;2.37;;;1.47;;
20110;SDS011;10216;42.658;23.248;2023-08-07T07:13:07;3.67;;;1.37;;
20110;SDS011;10216;42.658;23.248;2023-08-07T07:15:34;1.33;;;1.23;;
20110;SDS011;10216;42.658;23.248;2023-08-07T07:18:00;1.40;;;1.20;;
20110;SDS011;10216;42.658;23.248;2023-08-07T07:20:26;2.30;;;1.30;;
20110;SDS011;10216;42.658;23.248;2023-08-07T07:22:52;1.70;;;1.10;;
20110;SDS011;10216;42.658;23.248;2023-08-07T07:25:17;1.10;;;1.10;;
20110;SDS011;10216;42.658;23.248;2023-08-07T07:27:43;1.03;;;1.00;;
20110;SDS011;10216;42.658;23.248;2023-08-07T07:30:08;2.10;;;1.20;;
20110;SDS011;10216;42.658;23.248;2023-08-07T07:32:34;2.40;;;0.93;;
20110;SDS011;10216;42.658;23.248;2023-08-07T07:35:00;2.30;;;1.10;;
20110;SDS011;10216;42.658;23.248;2023-08-07T07:37:25;1.97;;;1.00;;
20110;SDS011;10216;42.658;23.248;2023-08-07T07:39:51;1.10;;;1.00;;
20110;SDS011;10216;42.658;23.248;2023-08-07T07:42:16;4.57;;;1.20;;
20110;SDS011;10216;42.658;23.248;2023-08-07T07:44:42;2.40;;;0.90;;
20110;SDS011;10216;42.658;23.248;2023-08-07T07:47:07;1.07;;;1.07;;
20110;SDS011;10216;42.658;23.248;2023-08-07T07:49:33;1.00;;;1.00;;
20110;SDS011;10216;42.658;23.248;2023-08-07T07:51:58;8.00;;;6.10;;
20110;SDS011;10216;42.658;23.248;2023-08-07T07:54:24;2.57;;;2.37;;
20110;SDS011;10216;42.658;23.248;2023-08-07T07:56:49;1.10;;;1.10;;
20110;SDS011;10216;42.658;23.248;2023-08-07T07:59:15;1.57;;;0.97;;
20110;SDS011;10216;42.658;23.248;2023-08-07T08:01:41;0.97;;;0.90;;
20110;SDS011;10216;42.658;23.248;2023-08-07T08:04:06;1.40;;;1.30;;
20110;SDS011;10216;42.658;23.248;2023-08-07T08:06:32;1.07;;;1.07;;
20110;SDS011;10216;42.658;23.248;2023-08-07T08:08:57;4.17;;;1.77;;
20110;SDS011;10216;42.658;23.248;2023-08-07T08:11:23;1.43;;;1.00;;
20110;SDS011;10216;42.658;23.248;2023-08-07T08:13:48;2.20;;;0.90;;
20110;SDS011;10216;42.658;23.248;2023-08-07T08:16:14;1.77;;;1.00;;
20110;SDS011;10216;42.658;23.248;2023-08-07T08:18:40;0.80;;;0.80;;
20110;SDS011;10216;42.658;23.248;2023-08-07T08:21:05;0.90;;;0.90;;
20110;SDS011;10216;42.658;23.248;2023-08-07T08:23:31;4.00;;;1.00;;
20110;SDS011;10216;42.658;23.248;2023-08-07T08:25:57;3.25;;;1.15;;
20110;SDS011;10216;42.658;23.248;2023-08-07T08:28:22;3.07;;;1.60;;
20110;SDS011;10216;42.658;23.248;2023-08-07T08:30:47;1.30;;;1.00;;
20110;SDS011;10216;42.658;23.248;2023-08-07T08:33:13;2.35;;;0.90;;
20110;SDS011;10216;42.658;23.248;2023-08-07T08:35:39;1.40;;;1.27;;
20110;SDS011;10216;42.658;23.248;2023-08-07T08:38:05;4.63;;;1.40;;
20110;SDS011;10216;42.658;23.248;2023-08-07T08:40:31;1.33;;;1.27;;
20110;SDS011;10216;42.658;23.248;2023-08-07T08:43:00;1.10;;;1.00;;
20110;SDS011;10216;42.658;23.248;2023-08-07T08:45:26;1.08;;;0.80;;
20110;SDS011;10216;42.658;23.248;2023-08-07T08:47:54;1.98;;;1.40;;
20110;SDS011;10216;42.658;23.248;2023-08-07T08:50:24;1.80;;;1.02;;
20110;SDS011;10216;42.658;23.248;2023-08-07T08:52:51;2.05;;;0.80;;
20110;SDS011;10216;42.658;23.248;2023-08-07T08:55:19;2.08;;;0.90;;
20110;SDS011;10216;42.658;23.248;2023-08-07T08:57:45;1.83;;;0.80;;
20110;SDS011;10216;42.658;23.248;2023-08-07T09:00:13;0.90;;;0.90;;
20110;SDS011;10216;42.658;23.248;2023-08-07T09:02:50;1.30;;;0.95;;
20110;SDS011;10216;42.658;23.248;2023-08-07T09:05:17;0.85;;;0.85;;
20110;SDS011;10216;42.658;23.248;2023-08-07T09:07:45;2.15;;;0.90;;
20110;SDS011;10216;42.658;23.248;2023-08-07T09:10:12;2.38;;;0.98;;
20110;SDS011;10216;42.658;23.248;2023-08-07T09:12:50;1.50;;;0.88;;
20110;SDS011;10216;42.658;23.248;2023-08-07T09:15:20;2.30;;;1.00;;
20110;SDS011;10216;42.658;23.248;2023-08-07T09:17:48;1.92;;;1.00;;
20110;SDS011;10216;42.658;23.248;2023-08-07T09:20:14;1.20;;;1.10;;
20110;SDS011;10216;42.658;23.248;2023-08-07T09:22:40;1.38;;;1.00;;
20110;SDS011;10216;42.658;23.248;2023-08-07T09:25:06;1.15;;;1.02;;
20110;SDS011;10216;42.658;23.248;2023-08-07T09:27:32;3.42;;;1.00;;
20110;SDS011;10216;42.658;23.248;2023-08-07T09:29:58;1.85;;;1.00;;
20110;SDS011;10216;42.658;23.248;2023-08-07T09:32:24;1.02;;;1.00;;
20110;SDS011;10216;42.658;23.248;2023-08-07T09:34:49;1.58;;;1.48;;
20110;SDS011;10216;42.658;23.248;2023-08-07T09:37:16;2.20;;;1.40;;
20110;SDS011;10216;42.658;23.248;2023-08-07T09:39:42;2.67;;;1.08;;
20110;SDS011;10216;42.658;23.248;2023-08-07T09:42:14;1.55;;;1.23;;
20110;SDS011;10216;42.658;23.248;2023-08-07T09:44:40;1.30;;;1.20;;
20110;SDS011;10216;42.658;23.248;2023-08-07T09:47:13;2.13;;;1.05;;
20110;SDS011;10216;42.658;23.248;2023-08-07T09:49:39;2.83;;;0.90;;
20110;SDS011;10216;42.658;23.248;2023-08-07T09:52:06;2.88;;;1.33;;
20110;SDS011;10216;42.658;23.248;2023-08-07T09:54:33;1.15;;;1.10;;
20110;SDS011;10216;42.658;23.248;2023-08-07T09:56:59;0.90;;;0.90;;
20110;SDS011;10216;42.658;23.248;2023-08-07T09:59:26;1.10;;;1.10;;
20110;SDS011;10216;42.658;23.248;2023-08-07T10:01:52;1.35;;;0.90;;
20110;SDS011;10216;42.658;23.248;2023-08-07T10:04:19;1.20;;;1.00;;
20110;SDS011;10216;42.658;23.248;2023-08-07T10:06:46;0.98;;;0.95;;
20110;SDS011;10216;42.658;23.248;2023-08-07T10:09:12;1.10;;;1.00;;
20110;SDS011;10216;42.658;23.248;2023-08-07T10:11:38;2.33;;;0.98;;
20110;SDS011;10216;42.658;23.248;2023-08-07T10:14:05;1.42;;;0.90;;
20110;SDS011;10216;42.658;23.248;2023-08-07T10:16:30;1.02;;;0.90;;
20110;SDS011;10216;42.658;23.248;2023-08-07T10:18:56;2.13;;;1.00;;
20110;SDS011;10216;42.658;23.248;2023-08-07T10:21:23;1.58;;;0.90;;
20110;SDS011;10216;42.658;23.248;2023-08-07T10:23:51;0.90;;;0.90;;
20110;SDS011;10216;42.658;23.248;2023-08-07T10:26:19;0.80;;;0.80;;
20110;SDS011;10216;42.658;23.248;2023-08-07T10:28:46;1.55;;;0.73;;
20110;SDS011;10216;42.658;23.248;2023-08-07T10:31:15;2.17;;;0.90;;
20110;SDS011;10216;42.658;23.248;2023-08-07T10:33:41;1.02;;;0.73;;
20110;SDS011;10216;42.658;23.248;2023-08-07T10:36:08;0.68;;;0.68;;
20110;SDS011;10216;42.658;23.248;2023-08-07T10:38:35;3.38;;;0.90;;
20110;SDS011;10216;42.658;23.248;2023-08-07T10:41:08;0.82;;;0.82;;
20110;SDS011;10216;42.658;23.248;2023-08-07T10:43:41;0.90;;;0.90;;
20110;SDS011;10216;42.658;23.248;2023-08-07T10:46:12;1.90;;;0.80;;
20110;SDS011;10216;42.658;23.248;2023-08-07T10:48:45;1.02;;;0.90;;
20110;SDS011;10216;42.658;23.248;2023-08-07T10:51:15;1.45;;;0.90;;
20110;SDS011;10216;42.658;23.248;2023-08-07T10:53:43;1.45;;;1.10;;
20110;SDS011;10216;42.658;23.248;2023-08-07T10:58:56;1.15;;;0.70;;
20110;SDS011;10216;42.658;23.248;2023-08-07T11:06:23;1.55;;;0.80;;
20110;SDS011;10216;42.658;23.248;2023-08-07T11:08:51;0.80;;;0.80;;
20110;SDS011;10216;42.658;23.248;2023-08-07T11:11:17;1.52;;;0.80;;
20110;SDS011;10216;42.658;23.248;2023-08-07T11:13:42;0.80;;;0.80;;
20110;SDS011;10216;42.658;23.248;2023-08-07T11:16:08;2.15;;;1.00;;
20110;SDS011;10216;42.658;23.248;2023-08-07T11:18:33;1.95;;;1.00;;
20110;SDS011;10216;42.658;23.248;2023-08-07T11:21:00;1.15;;;0.90;;
20110;SDS011;10216;42.658;23.248;2023-08-07T11:23:26;1.85;;;0.77;;
20110;SDS011;10216;42.658;23.248;2023-08-07T11:25:52;1.75;;;0.88;;
20110;SDS011;10216;42.658;23.248;2023-08-07T11:28:18;2.35;;;1.00;;
20110;SDS011;10216;42.658;23.248;2023-08-07T11:30:45;0.95;;;0.82;;
20110;SDS011;10216;42.658;23.248;2023-08-07T11:33:14;1.65;;;1.00;;
20110;SDS011;10216;42.658;23.248;2023-08-07T11:35:42;2.53;;;1.00;;
20110;SDS011;10216;42.658;23.248;2023-08-07T11:38:08;2.33;;;0.98;;
20110;SDS011;10216;42.658;23.248;2023-08-07T11:40:33;4.32;;;1.30;;
20110;SDS011;10216;42.658;23.248;2023-08-07T11:42:59;2.03;;;0.70;;
20110;SDS011;10216;42.658;23.248;2023-08-07T11:45:25;1.65;;;1.00;;
20110;SDS011;10216;42.658;23.248;2023-08-07T11:47:50;3.05;;;1.10;;
20110;SDS011;10216;42.658;23.248;2023-08-07T11:50:16;3.92;;;1.00;;
20110;SDS011;10216;42.658;23.248;2023-08-07T11:52:41;2.00;;;1.10;;
20110;SDS011;10216;42.658;23.248;2023-08-07T11:55:07;2.05;;;1.00;;
20110;SDS011;10216;42.658;23.248;2023-08-07T11:57:34;1.92;;;1.30;;
20110;SDS011;10216;42.658;23.248;2023-08-07T11:59:59;2.78;;;1.10;;
20110;SDS011;10216;42.658;23.248;2023-08-07T12:02:25;2.97;;;0.90;;
20110;SDS011;10216;42.658;23.248;2023-08-07T12:04:50;2.42;;;1.10;;
20110;SDS011;10216;42.658;23.248;2023-08-07T12:07:18;3.55;;;1.27;;
20110;SDS011;10216;42.658;23.248;2023-08-07T12:09:48;1.25;;;1.05;;
20110;SDS011;10216;42.658;23.248;2023-08-07T12:12:13;2.88;;;1.10;;
20110;SDS011;10216;42.658;23.248;2023-08-07T12:14:38;2.08;;;1.33;;
20110;SDS011;10216;42.658;23.248;2023-08-07T12:17:05;4.22;;;1.30;;
20110;SDS011;10216;42.658;23.248;2023-08-07T12:19:39;3.40;;;1.15;;
20110;SDS011;10216;42.658;23.248;2023-08-07T12:22:09;1.30;;;1.20;;
20110;SDS011;10216;42.658;23.248;2023-08-07T12:24:35;1.90;;;1.20;;
20110;SDS011;10216;42.658;23.248;2023-08-07T12:27:02;2.47;;;1.30;;
20110;SDS011;10216;42.658;23.248;2023-08-07T12:29:29;2.70;;;1.10;;
20110;SDS011;10216;42.658;23.248;2023-08-07T12:31:54;4.57;;;1.20;;
20110;SDS011;10216;42.658;23.248;2023-08-07T12:34:20;3.08;;;0.95;;
20110;SDS011;10216;42.658;23.248;2023-08-07T12:36:46;3.63;;;1.42;;
20110;SDS011;10216;42.658;23.248;2023-08-07T12:39:12;2.83;;;1.20;;
20110;SDS011;10216;42.658;23.248;2023-08-07T12:41:37;1.23;;;1.20;;
20110;SDS011;10216;42.658;23.248;2023-08-07T12:44:03;1.23;;;1.08;;
20110;SDS011;10216;42.658;23.248;2023-08-07T12:46:28;1.00;;;1.00;;
20110;SDS011;10216;42.658;23.248;2023-08-07T12:48:54;4.35;;;1.40;;
20110;SDS011;10216;42.658;23.248;2023-08-07T12:51:19;3.40;;;1.40;;
20110;SDS011;10216;42.658;23.248;2023-08-07T12:53:44;3.03;;;1.20;;
20110;SDS011;10216;42.658;23.248;2023-08-07T12:56:10;2.72;;;1.20;;
20110;SDS011;10216;42.658;23.248;2023-08-07T12:58:35;1.40;;;1.30;;
20110;SDS011;10216;42.658;23.248;2023-08-07T13:01:01;3.20;;;1.10;;
20110;SDS011;10216;42.658;23.248;2023-08-07T13:03:26;2.30;;;1.38;;
20110;SDS011;10216;42.658;23.248;2023-08-07T13:05:52;2.60;;;1.20;;
20110;SDS011;10216;42.658;23.248;2023-08-07T13:08:17;4.47;;;1.20;;
20110;SDS011;10216;42.658;23.248;2023-08-07T13:10:42;3.08;;;1.30;;
20110;SDS011;10216;42.658;23.248;2023-08-07T13:13:08;3.80;;;1.45;;
20110;SDS011;10216;42.658;23.248;2023-08-07T13:15:34;2.60;;;1.17;;
20110;SDS011;10216;42.658;23.248;2023-08-07T13:18:00;2.65;;;1.10;;
20110;SDS011;10216;42.658;23.248;2023-08-07T13:20:25;6.20;;;1.40;;
20110;SDS011;10216;42.658;23.248;2023-08-07T13:22:52;3.80;;;1.23;;
20110;SDS011;10216;42.658;23.248;2023-08-07T13:25:17;1.45;;;1.35;;
20110;SDS011;10216;42.658;23.248;2023-08-07T13:27:42;5.60;;;1.30;;
20110;SDS011;10216;42.658;23.248;2023-08-07T13:30:08;1.15;;;1.00;;
20110;SDS011;10216;42.658;23.248;2023-08-07T13:32:34;3.53;;;1.10;;
20110;SDS011;10216;42.658;23.248;2023-08-07T13:35:00;4.05;;;1.20;;
20110;SDS011;10216;42.658;23.248;2023-08-07T13:37:27;1.55;;;0.93;;
20110;SDS011;10216;42.658;23.248;2023-08-07T13:39:53;2.33;;;1.15;;
20110;SDS011;10216;42.658;23.248;2023-08-07T13:42:19;2.55;;;1.10;;
20110;SDS011;10216;42.658;23.248;2023-08-07T13:44:45;1.50;;;1.40;;
20110;SDS011;10216;42.658;23.248;2023-08-07T13:47:10;3.72;;;1.48;;
20110;SDS011;10216;42.658;23.248;2023-08-07T13:49:37;3.92;;;1.17;;
20110;SDS011;10216;42.658;23.248;2023-08-07T13:52:02;4.40;;;1.38;;
20110;SDS011;10216;42.658;23.248;2023-08-07T13:54:28;2.20;;;1.20;;
20110;SDS011;10216;42.658;23.248;2023-08-07T13:56:53;1.30;;;1.20;;
20110;SDS011;10216;42.658;23.248;2023-08-07T13:59:19;1.50;;;1.13;;
20110;SDS011;10216;42.658;23.248;2023-08-07T14:01:44;1.33;;;1.20;;
20110;SDS011;10216;42.658;23.248;2023-08-07T14:04:10;1.35;;;1.30;;
20110;SDS011;10216;42.658;23.248;2023-08-07T14:06:35;4.43;;;1.63;;
20110;SDS011;10216;42.658;23.248;2023-08-07T14:09:00;3.90;;;1.30;;
20110;SDS011;10216;42.658;23.248;2023-08-07T14:11:26;2.47;;;1.15;;
20110;SDS011;10216;42.658;23.248;2023-08-07T14:13:59;2.88;;;1.45;;
20110;SDS011;10216;42.658;23.248;2023-08-07T14:16:27;6.13;;;1.20;;
20110;SDS011;10216;42.658;23.248;2023-08-07T14:18:52;4.75;;;1.60;;
20110;SDS011;10216;42.658;23.248;2023-08-07T14:21:18;3.17;;;1.48;;
20110;SDS011;10216;42.658;23.248;2023-08-07T14:23:44;1.95;;;1.40;;
20110;SDS011;10216;42.658;23.248;2023-08-07T14:26:10;5.18;;;1.42;;
20110;SDS011;10216;42.658;23.248;2023-08-07T14:28:39;2.65;;;1.35;;
20110;SDS011;10216;42.658;23.248;2023-08-07T14:31:08;1.63;;;1.40;;
20110;SDS011;10216;42.658;23.248;2023-08-07T14:33:34;4.53;;;1.55;;
20110;SDS011;10216;42.658;23.248;2023-08-07T14:36:00;1.52;;;1.42;;
20110;SDS011;10216;42.658;23.248;2023-08-07T14:38:26;1.73;;;1.50;;
20110;SDS011;10216;42.658;23.248;2023-08-07T14:40:52;1.92;;;1.40;;
20110;SDS011;10216;42.658;23.248;2023-08-07T14:43:17;2.65;;;1.20;;